Time;durP1;ratioP1;P1;durP2;ratioP2;P2;SDS_P1;SDS_P2;PMS_P1;PMS_P2;Temp;Humidity;BMP_temperature;BMP_pressure;BME280_temperature;BME280_humidity;BME280_pressure;Samples;Min_cycle;Max_cycle;Signal;HPM_P1;HPM_P2
2022/04/27 00:01:24;;;;;;;7.00;6.30;;;;;;;8.33;100.00;99804.50;4954236;29;20206;-82
2022/04/27 00:03:50;;;;;;;8.68;7.45;;;;;;;8.43;100.00;99802.28;4954274;29;20225;-83
2022/04/27 00:06:17;;;;;;;9.90;7.60;;;;;;;8.29;100.00;99796.66;4954304;29;20186;-82
2022/04/27 00:08:43;;;;;;;11.23;7.70;;;;;;;8.09;100.00;99809.13;4959893;29;20292;-82
2022/04/27 00:11:10;;;;;;;9.25;7.47;;;;;;;8.09;100.00;99809.13;4961548;28;20194;-83
2022/04/27 00:13:36;;;;;;;8.98;7.68;;;;;;;8.12;100.00;99806.34;4954390;28;20211;-83
2022/04/27 00:16:05;;;;;;;9.63;7.55;;;;;;;8.22;100.00;99795.19;4954728;28;20237;-82
2022/04/27 00:18:31;;;;;;;8.02;6.95;;;;;;;8.06;100.00;99797.69;4954415;28;20191;-83
2022/04/27 00:20:59;;;;;;;10.65;6.95;;;;;;;7.85;100.00;99795.03;4954194;29;20189;-83
2022/04/27 00:23:26;;;;;;;8.00;7.10;;;;;;;7.67;100.00;99794.00;4953334;28;20288;-82
2022/04/27 00:25:53;;;;;;;9.00;7.32;;;;;;;7.62;100.00;99793.34;4953434;29;20197;-83
2022/04/27 00:28:20;;;;;;;8.35;7.20;;;;;;;7.50;100.00;99793.84;4954165;28;20197;-83
2022/04/27 00:30:47;;;;;;;7.25;6.45;;;;;;;7.66;100.00;99797.59;4954249;29;20193;-82
2022/04/27 00:33:15;;;;;;;8.60;7.55;;;;;;;7.65;100.00;99798.56;4953882;28;20559;-82
2022/04/27 00:35:42;;;;;;;9.55;8.00;;;;;;;7.49;100.00;99798.34;4953773;29;20299;-83
2022/04/27 00:38:09;;;;;;;10.95;8.32;;;;;;;7.48;100.00;99793.03;4953450;29;20204;-82
2022/04/27 00:40:35;;;;;;;8.80;7.47;;;;;;;7.52;100.00;99789.31;4953804;28;20528;-82
2022/04/27 00:43:02;;;;;;;7.93;7.15;;;;;;;7.69;100.00;99793.97;4954256;29;20200;-82
2022/04/27 00:45:29;;;;;;;7.55;6.75;;;;;;;7.69;100.00;99789.47;4953765;29;20557;-83
2022/04/27 00:47:55;;;;;;;10.32;8.25;;;;;;;7.64;100.00;99786.13;4954051;28;20215;-82
2022/04/27 00:50:23;;;;;;;9.05;7.32;;;;;;;7.53;100.00;99793.75;4955053;28;20656;-82
2022/04/27 00:52:50;;;;;;;8.43;7.63;;;;;;;7.58;100.00;99790.88;4956335;28;20536;-83
2022/04/27 00:55:17;;;;;;;7.70;6.90;;;;;;;7.51;100.00;99790.25;4954119;28;20591;-82
2022/04/27 00:57:46;;;;;;;13.75;7.43;;;;;;;7.45;100.00;99790.50;4953563;28;20205;-84
2022/04/27 01:00:13;;;;;;;7.90;7.10;;;;;;;7.17;100.00;99794.34;4953838;29;20204;-83
2022/04/27 01:02:40;;;;;;;7.57;6.78;;;;;;;7.13;100.00;99791.84;4954256;28;20509;-83
2022/04/27 01:05:09;;;;;;;7.70;6.90;;;;;;;7.05;100.00;99802.84;4953167;28;20196;-82
2022/04/27 01:07:38;;;;;;;9.80;8.18;;;;;;;7.24;100.00;99803.84;4954304;28;20562;-84
2022/04/27 01:10:06;;;;;;;8.60;7.22;;;;;;;7.24;100.00;99798.50;4953168;29;21931;-83
2022/04/27 01:12:33;;;;;;;8.20;7.13;;;;;;;7.25;100.00;99797.56;4953474;28;20207;-82
2022/04/27 01:15:00;;;;;;;7.82;7.05;;;;;;;7.20;100.00;99796.88;4953564;29;20192;-82
2022/04/27 01:17:26;;;;;;;11.95;8.88;;;;;;;7.23;100.00;99802.09;4953399;28;20243;-83
2022/04/27 01:19:53;;;;;;;8.50;7.55;;;;;;;7.19;100.00;99797.81;4952628;28;20192;-83
2022/04/27 01:22:21;;;;;;;8.50;7.05;;;;;;;7.20;100.00;99801.38;4959320;28;20260;-82
2022/04/27 01:24:49;;;;;;;9.30;8.27;;;;;;;6.97;100.00;99800.50;4953365;29;20565;-84
2022/04/27 01:27:15;;;;;;;9.20;8.20;;;;;;;6.94;100.00;99797.91;4953383;29;20562;-82
2022/04/27 01:29:42;;;;;;;9.13;7.65;;;;;;;7.10;100.00;99795.53;4953194;29;20191;-82
2022/04/27 01:32:10;;;;;;;11.48;7.82;;;;;;;6.98;100.00;99793.34;4953518;29;20201;-82
2022/04/27 01:34:36;;;;;;;10.23;8.30;;;;;;;6.99;100.00;99792.41;4954029;28;20193;-82
2022/04/27 01:39:45;;;;;;;10.38;7.45;;;;;;;7.11;100.00;99791.91;4956569;29;20718;-84
2022/04/27 01:42:12;;;;;;;9.13;8.15;;;;;;;6.88;100.00;99791.03;4956704;29;20193;-83
2022/04/27 01:44:38;;;;;;;8.50;7.32;;;;;;;6.91;100.00;99797.19;4957205;28;20199;-83
2022/04/27 01:47:06;;;;;;;8.50;7.60;;;;;;;6.69;100.00;99790.00;4957414;28;20841;-83
2022/04/27 01:49:32;;;;;;;8.02;7.22;;;;;;;6.82;100.00;99795.75;4957018;28;20196;-83
2022/04/27 01:54:44;;;;;;;10.98;7.80;;;;;;;6.74;100.00;99801.41;4967285;28;20267;-83
2022/04/27 01:57:12;;;;;;;7.82;6.47;;;;;;;6.74;100.00;99798.75;4956691;28;20224;-82
2022/04/27 01:59:41;;;;;;;8.48;7.35;;;;;;;6.81;100.00;99799.38;4956365;28;20267;-83
2022/04/27 02:02:10;;;;;;;9.27;6.95;;;;;;;6.73;100.00;99802.34;4956932;29;20192;-83
2022/04/27 02:04:39;;;;;;;8.32;7.30;;;;;;;6.80;100.00;99801.16;4965410;28;20667;-83
2022/04/27 02:07:06;;;;;;;9.00;7.82;;;;;;;6.75;100.00;99803.16;4956433;29;20289;-82
2022/04/27 02:09:32;;;;;;;9.68;7.05;;;;;;;6.75;100.00;99805.81;4955886;29;20189;-82
2022/04/27 02:12:00;;;;;;;8.15;7.18;;;;;;;6.75;100.00;99811.19;4956790;28;20207;-83
2022/04/27 02:14:27;;;;;;;8.80;7.13;;;;;;;6.66;100.00;99809.72;4956441;28;20197;-82
2022/04/27 02:16:54;;;;;;;10.35;7.28;;;;;;;6.70;100.00;99814.97;4956206;29;20251;-82
2022/04/27 02:19:21;;;;;;;9.38;7.82;;;;;;;6.71;100.00;99811.34;4955170;28;20204;-82
2022/04/27 02:21:47;;;;;;;10.77;7.53;;;;;;;6.79;100.00;99818.16;4956717;29;20291;-82
2022/04/27 02:24:14;;;;;;;8.82;7.85;;;;;;;6.86;100.00;99822.34;4954685;28;20197;-82
2022/04/27 02:26:42;;;;;;;9.02;7.70;;;;;;;6.62;100.00;99817.94;4956246;28;20203;-82
2022/04/27 02:29:10;;;;;;;11.45;7.28;;;;;;;6.48;100.00;99824.66;4956051;28;20236;-82
2022/04/27 02:31:37;;;;;;;11.50;8.50;;;;;;;6.42;100.00;99822.25;4956546;29;20541;-82
2022/04/27 02:34:03;;;;;;;9.43;8.07;;;;;;;6.35;100.00;99828.72;4956009;29;20223;-83
2022/04/27 02:36:30;;;;;;;9.65;8.40;;;;;;;6.37;100.00;99832.22;4955948;28;20209;-83
2022/04/27 02:38:57;;;;;;;11.27;8.50;;;;;;;6.30;100.00;99827.19;4954929;28;20197;-82
2022/04/27 02:41:23;;;;;;;9.75;8.10;;;;;;;6.47;100.00;99827.44;4955867;29;20189;-82
2022/04/27 02:43:50;;;;;;;11.88;8.23;;;;;;;6.53;100.00;99832.53;4956037;28;20192;-83
2022/04/27 02:46:18;;;;;;;9.85;8.60;;;;;;;6.45;100.00;99822.13;4955586;28;20297;-82
2022/04/27 02:51:48;;;;;;;8.60;7.47;;;;;;;6.50;100.00;99826.44;4956044;29;20197;-83
2022/04/27 02:54:25;;;;;;;10.00;8.50;;;;;;;6.05;100.00;99826.25;4930817;28;20205;-82
2022/04/27 02:56:53;;;;;;;10.50;9.10;;;;;;;6.08;100.00;99827.06;4956045;28;20255;-82
2022/04/27 02:59:19;;;;;;;14.07;8.60;;;;;;;6.12;100.00;99832.25;4955808;28;20204;-84
2022/04/27 03:01:48;;;;;;;9.18;8.18;;;;;;;5.97;100.00;99833.69;4955921;28;20196;-83
2022/04/27 03:04:15;;;;;;;10.57;9.00;;;;;;;6.02;100.00;99837.06;4955458;28;20644;-82
2022/04/27 03:06:41;;;;;;;9.63;8.13;;;;;;;5.89;100.00;99825.03;4956129;28;20561;-82
2022/04/27 03:09:08;;;;;;;13.50;8.80;;;;;;;5.91;100.00;99830.34;4954768;28;20284;-82
2022/04/27 03:11:35;;;;;;;10.30;8.70;;;;;;;5.85;100.00;99829.59;4963556;28;20195;-83
2022/04/27 03:14:01;;;;;;;12.32;8.65;;;;;;;5.84;100.00;99830.53;4956233;28;20204;-83
2022/04/27 03:16:28;;;;;;;15.63;8.70;;;;;;;5.82;100.00;99821.69;4954700;28;20236;-82
2022/04/27 03:18:56;;;;;;;10.65;8.77;;;;;;;5.93;100.00;99825.81;4955078;28;20192;-83
2022/04/27 03:21:22;;;;;;;9.10;8.07;;;;;;;6.01;100.00;99823.75;4954860;28;20543;-84
2022/04/27 03:23:49;;;;;;;11.30;8.25;;;;;;;6.03;100.00;99828.09;4955046;28;20553;-83
2022/04/27 03:26:15;;;;;;;11.25;9.50;;;;;;;5.99;100.00;99825.59;4955546;28;20201;-83
2022/04/27 03:28:42;;;;;;;11.40;8.85;;;;;;;5.98;100.00;99830.09;4955353;28;20199;-83
2022/04/27 03:31:09;;;;;;;13.45;10.65;;;;;;;5.82;100.00;99834.19;4955781;29;20197;-83
2022/04/27 03:33:36;;;;;;;11.00;8.30;;;;;;;5.84;100.00;99832.34;4954894;28;20209;-83
2022/04/27 03:36:04;;;;;;;11.35;9.57;;;;;;;5.96;100.00;99829.25;4955565;29;20191;-85
2022/04/27 03:38:31;;;;;;;10.63;8.35;;;;;;;5.87;100.00;99828.69;4953214;29;20214;-83
2022/04/27 03:40:58;;;;;;;11.43;9.93;;;;;;;5.87;100.00;99831.38;4955519;28;20223;-83
2022/04/27 03:43:24;;;;;;;10.85;8.65;;;;;;;5.82;100.00;99832.38;4954912;28;20199;-83
2022/04/27 03:45:51;;;;;;;14.30;9.65;;;;;;;5.94;100.00;99831.13;4954966;29;20193;-84
2022/04/27 03:48:17;;;;;;;12.20;10.25;;;;;;;5.78;100.00;99830.75;4955074;29;20542;-83
2022/04/27 03:50:44;;;;;;;13.00;9.82;;;;;;;5.78;100.00;99832.56;4961111;28;20283;-75
2022/04/27 03:53:12;;;;;;;14.02;11.30;;;;;;;5.89;100.00;99838.41;4955091;28;20188;-77
2022/04/27 03:55:39;;;;;;;15.05;10.80;;;;;;;5.76;100.00;99848.63;4954806;28;20192;-76
2022/04/27 03:58:08;;;;;;;12.00;9.48;;;;;;;5.72;100.00;99844.34;4953714;28;20211;-76
2022/04/27 04:00:35;;;;;;;11.82;9.88;;;;;;;5.72;100.00;99848.78;4955131;28;20193;-76
2022/04/27 04:03:02;;;;;;;12.80;9.70;;;;;;;5.66;100.00;99847.22;4955103;28;20628;-76
2022/04/27 04:05:29;;;;;;;12.88;10.23;;;;;;;5.62;100.00;99842.88;4954503;29;20279;-76
2022/04/27 04:07:56;;;;;;;13.35;9.45;;;;;;;5.63;100.00;99842.84;4954010;28;20204;-75
2022/04/27 04:10:24;;;;;;;15.63;10.25;;;;;;;5.64;100.00;99849.94;4954843;28;20620;-76
2022/04/27 04:12:51;;;;;;;12.32;9.73;;;;;;;5.75;100.00;99859.38;4954739;28;20203;-76
2022/04/27 04:15:18;;;;;;;14.13;10.68;;;;;;;5.90;100.00;99841.94;4954450;29;20205;-76
2022/04/27 04:17:45;;;;;;;14.30;10.30;;;;;;;6.00;100.00;99856.78;4954699;28;20233;-77
2022/04/27 04:20:13;;;;;;;13.23;10.35;;;;;;;5.89;100.00;99853.56;4953596;28;20227;-77
2022/04/27 04:22:40;;;;;;;14.35;10.40;;;;;;;5.66;100.00;99863.25;4950285;28;20201;-77
2022/04/27 04:30:37;;;;;;;12.93;10.90;;;;;;;5.62;100.00;99877.63;4954305;29;20252;-77
2022/04/27 04:33:04;;;;;;;16.08;10.10;;;;;;;5.70;100.00;99878.25;4954072;28;20200;-76
2022/04/27 04:35:30;;;;;;;13.50;10.57;;;;;;;5.55;100.00;99873.41;4954162;28;20284;-76
2022/04/27 04:37:57;;;;;;;13.43;9.63;;;;;;;5.62;100.00;99878.50;4953799;28;20228;-77
2022/04/27 04:40:23;;;;;;;11.05;9.60;;;;;;;5.62;100.00;99891.84;4941099;28;20197;-76
2022/04/27 04:42:50;;;;;;;14.02;10.35;;;;;;;5.71;100.00;99892.47;4935228;29;20647;-76
2022/04/27 04:45:20;;;;;;;13.38;10.50;;;;;;;5.75;100.00;99888.78;4944857;29;20223;-76
2022/04/27 04:47:46;;;;;;;11.18;9.70;;;;;;;5.77;100.00;99900.28;4942215;29;20657;-75
2022/04/27 04:50:13;;;;;;;17.95;10.15;;;;;;;5.56;100.00;99901.84;4954183;28;20536;-76
2022/04/27 04:52:40;;;;;;;13.07;11.30;;;;;;;5.52;100.00;99901.09;4941773;28;20225;-76
2022/04/27 04:55:07;;;;;;;11.23;10.02;;;;;;;5.71;100.00;99896.00;4934426;29;20653;-75
2022/04/27 04:57:33;;;;;;;16.15;11.48;;;;;;;5.80;100.00;99901.03;4943147;28;20670;-75
2022/04/27 05:00:00;;;;;;;14.70;11.43;;;;;;;5.79;100.00;99898.44;4964435;28;20483;-76
2022/04/27 05:02:30;;;;;;;12.63;10.10;;;;;;;5.77;100.00;99897.63;4944965;28;20280;-76
2022/04/27 05:04:57;;;;;;;14.50;12.05;;;;;;;5.79;100.00;99904.66;4953062;29;20215;-76
2022/04/27 05:07:23;;;;;;;13.57;11.40;;;;;;;5.85;100.00;99906.22;4953982;28;20181;-76
2022/04/27 05:09:50;;;;;;;13.20;11.00;;;;;;;5.98;100.00;99914.75;4949345;28;20293;-76
2022/04/27 05:12:16;;;;;;;12.80;10.65;;;;;;;6.03;100.00;99910.13;4940289;29;20200;-76
2022/04/27 05:14:43;;;;;;;15.80;13.10;;;;;;;6.15;100.00;99916.81;4939885;29;20196;-76
2022/04/27 05:17:10;;;;;;;14.70;11.32;;;;;;;6.17;100.00;99918.56;4938811;29;20229;-76
2022/04/27 05:19:37;;;;;;;13.68;11.70;;;;;;;6.08;100.00;99924.19;4950850;29;20556;-76
2022/04/27 05:22:04;;;;;;;13.27;10.88;;;;;;;6.25;100.00;99926.28;4957117;28;20184;-76
2022/04/27 05:24:34;;;;;;;12.60;10.98;;;;;;;6.15;100.00;99925.75;4957066;28;20616;-76
2022/04/27 05:27:01;;;;;;;15.73;12.40;;;;;;;6.16;100.00;99927.47;4956516;28;20304;-78
2022/04/27 05:32:12;;;;;;;19.35;15.48;;;;;;;6.43;100.00;99930.13;4954504;29;20196;-76
2022/04/27 05:34:40;;;;;;;15.07;11.15;;;;;;;6.43;100.00;99927.44;4955967;28;20208;-76
2022/04/27 05:37:07;;;;;;;16.20;11.38;;;;;;;6.36;100.00;99948.19;4956575;28;20269;-77
2022/04/27 05:39:34;;;;;;;15.00;10.88;;;;;;;6.24;100.00;99943.25;4956926;28;20201;-76
2022/04/27 05:42:00;;;;;;;16.35;11.50;;;;;;;6.43;100.00;99938.13;4956562;28;20189;-76
2022/04/27 05:44:27;;;;;;;15.00;12.65;;;;;;;6.46;100.00;99940.69;4956109;28;20214;-75
2022/04/27 05:46:55;;;;;;;15.73;12.20;;;;;;;6.62;100.00;99941.00;4952140;28;20260;-78
2022/04/27 05:49:22;;;;;;;14.98;11.77;;;;;;;6.60;100.00;99948.22;4955948;28;20200;-76
2022/04/27 05:51:51;;;;;;;15.77;11.60;;;;;;;6.85;100.00;99941.06;4956967;28;20650;-77
2022/04/27 05:54:18;;;;;;;15.35;11.93;;;;;;;6.89;100.00;99936.44;4955591;28;20236;-75
2022/04/27 05:56:45;;;;;;;17.52;12.43;;;;;;;7.18;100.00;99942.50;4956489;28;20228;-77
2022/04/27 05:59:12;;;;;;;17.10;11.90;;;;;;;7.18;100.00;99942.50;4956400;28;20209;-78
2022/04/27 06:01:39;;;;;;;19.15;13.48;;;;;;;7.55;100.00;99949.06;4956373;28;20731;-77
2022/04/27 06:04:05;;;;;;;15.20;11.00;;;;;;;7.56;100.00;99959.75;4954053;28;20206;-76
2022/04/27 06:06:33;;;;;;;15.43;13.35;;;;;;;7.46;100.00;99953.88;4938014;29;20562;-76
2022/04/27 06:09:01;;;;;;;14.75;11.15;;;;;;;7.62;100.00;99950.56;4936909;29;20284;-77
2022/04/27 06:11:27;;;;;;;15.65;11.60;;;;;;;7.50;100.00;99954.63;4940118;29;20189;-77
2022/04/27 06:13:54;;;;;;;13.32;11.20;;;;;;;7.59;100.00;99959.59;4937329;29;20213;-77
2022/04/27 06:16:22;;;;;;;20.80;13.40;;;;;;;7.81;100.00;99959.63;4945164;28;20323;-76
2022/04/27 06:18:48;;;;;;;13.88;11.98;;;;;;;8.01;100.00;99957.94;4953629;28;20574;-77
2022/04/27 06:21:17;;;;;;;16.80;12.75;;;;;;;7.97;100.00;99962.53;4955002;28;20208;-75
2022/04/27 06:23:44;;;;;;;16.33;12.30;;;;;;;8.05;100.00;99963.09;4947601;28;20208;-76
2022/04/27 06:26:13;;;;;;;16.10;12.35;;;;;;;8.12;100.00;99961.91;4948008;28;20203;-76
2022/04/27 06:28:40;;;;;;;16.50;11.73;;;;;;;7.81;100.00;99964.13;4953721;28;20580;-76
2022/04/27 06:31:07;;;;;;;20.65;14.70;;;;;;;8.00;100.00;99974.94;4954805;29;20213;-77
2022/04/27 06:33:33;;;;;;;14.80;12.43;;;;;;;7.97;100.00;99965.22;4952900;28;20209;-78
2022/04/27 06:36:00;;;;;;;17.50;13.85;;;;;;;8.18;100.00;99963.44;4943471;29;20200;-77
2022/04/27 06:38:26;;;;;;;16.13;13.25;;;;;;;8.41;100.00;99967.88;4956921;28;20256;-76
2022/04/27 06:40:53;;;;;;;20.15;13.98;;;;;;;8.88;100.00;99966.69;4955525;28;20198;-76
2022/04/27 06:43:21;;;;;;;16.88;14.25;;;;;;;9.44;100.00;99968.56;4955036;28;20281;-75
2022/04/27 06:45:48;;;;;;;20.60;13.95;;;;;;;9.76;100.00;99975.06;4954084;28;20212;-76
2022/04/27 06:48:14;;;;;;;18.02;12.85;;;;;;;9.89;100.00;99978.03;4955165;28;20203;-76
2022/04/27 06:50:41;;;;;;;18.85;13.40;;;;;;;10.35;100.00;99978.44;4954794;28;20192;-75
2022/04/27 06:53:09;;;;;;;15.75;12.80;;;;;;;10.50;100.00;99982.19;4948261;28;20218;-75
2022/04/27 06:55:36;;;;;;;15.80;13.50;;;;;;;10.48;100.00;99985.91;4945133;29;20208;-76
2022/04/27 06:58:02;;;;;;;18.60;13.98;;;;;;;10.57;100.00;99990.81;4948424;28;20215;-76
2022/04/27 07:00:30;;;;;;;15.20;12.82;;;;;;;10.75;100.00;99992.53;4936989;28;20197;-77
2022/04/27 07:02:57;;;;;;;17.92;14.70;;;;;;;11.01;100.00;99988.47;4946880;29;20213;-75
2022/04/27 07:05:25;;;;;;;24.80;16.60;;;;;;;10.85;100.00;99993.81;4954724;28;20647;-76
2022/04/27 07:07:52;;;;;;;21.90;15.73;;;;;;;11.20;100.00;99993.72;4955115;28;20228;-77
2022/04/27 07:10:19;;;;;;;25.75;19.05;;;;;;;11.38;100.00;99999.06;4954219;28;20273;-78
2022/04/27 07:12:47;;;;;;;20.52;16.70;;;;;;;11.81;97.79;99997.53;4937789;28;20185;-77
2022/04/27 07:15:13;;;;;;;21.33;17.35;;;;;;;12.00;95.96;100001.91;4935898;29;20240;-76
2022/04/27 07:17:41;;;;;;;25.83;19.67;;;;;;;11.62;98.91;99996.81;4941298;29;20319;-77
2022/04/27 07:20:08;;;;;;;27.88;20.90;;;;;;;11.37;100.00;100000.88;4954648;28;20189;-76
2022/04/27 07:22:35;;;;;;;28.30;21.65;;;;;;;11.13;100.00;99995.00;4954661;28;20509;-78
2022/04/27 07:25:02;;;;;;;28.67;21.42;;;;;;;11.07;100.00;99995.34;4954559;28;20211;-76
2022/04/27 07:27:31;;;;;;;32.28;20.75;;;;;;;10.64;100.00;100001.16;4954790;28;20628;-77
2022/04/27 07:29:58;;;;;;;27.48;21.10;;;;;;;11.12;100.00;99995.09;4954898;28;20236;-78
2022/04/27 07:32:25;;;;;;;29.30;21.10;;;;;;;11.24;100.00;99999.84;4954189;28;20640;-77
2022/04/27 07:34:53;;;;;;;29.63;22.48;;;;;;;10.76;100.00;100005.06;4937508;28;20198;-77
2022/04/27 07:37:21;;;;;;;31.60;22.23;;;;;;;10.95;100.00;100007.66;4936149;29;20670;-77
2022/04/27 07:39:47;;;;;;;28.40;22.52;;;;;;;11.57;100.00;100004.31;4936693;29;20217;-77
2022/04/27 07:42:15;;;;;;;29.25;22.90;;;;;;;11.98;100.00;100012.78;4935786;29;20273;-77
2022/04/27 07:44:42;;;;;;;30.52;21.05;;;;;;;12.15;99.62;100011.81;4935599;29;20300;-76
2022/04/27 07:47:09;;;;;;;30.60;23.05;;;;;;;12.26;97.59;100017.47;4948356;29;20559;-78
2022/04/27 07:49:35;;;;;;;29.65;22.65;;;;;;;12.12;97.97;100006.59;4954711;28;20276;-76
2022/04/27 07:52:04;;;;;;;30.23;22.98;;;;;;;11.81;100.00;100016.41;4955258;28;20256;-76
2022/04/27 07:54:30;;;;;;;31.23;23.73;;;;;;;11.87;100.00;100016.13;4954965;28;20295;-76
2022/04/27 07:56:57;;;;;;;31.20;23.10;;;;;;;11.89;99.22;100018.69;4955844;28;20303;-75
2022/04/27 07:59:24;;;;;;;32.33;23.30;;;;;;;12.08;99.42;100022.09;4953928;28;20223;-74
2022/04/27 08:01:50;;;;;;;29.17;22.30;;;;;;;12.13;98.30;100016.44;4947500;28;20202;-74
2022/04/27 08:04:17;;;;;;;26.08;21.13;;;;;;;11.90;98.91;100017.75;4965957;28;20212;-75
2022/04/27 08:06:44;;;;;;;30.25;23.17;;;;;;;11.91;100.00;100018.63;4955148;28;20185;-74
2022/04/27 08:09:12;;;;;;;29.40;22.13;;;;;;;12.15;99.67;100019.91;4954420;28;20185;-76
2022/04/27 08:11:40;;;;;;;28.65;22.55;;;;;;;12.34;96.57;100016.13;4954749;28;20652;-76
2022/04/27 08:14:06;;;;;;;28.67;22.50;;;;;;;11.86;100.00;100013.44;4953977;28;20189;-74
2022/04/27 08:16:33;;;;;;;31.88;22.00;;;;;;;12.14;99.78;100015.47;4938599;29;20238;-75
2022/04/27 08:19:00;;;;;;;26.80;22.45;;;;;;;11.89;100.00;100019.59;4940104;29;20311;-75
2022/04/27 08:21:27;;;;;;;31.45;23.30;;;;;;;11.93;100.00;100017.56;4954582;28;20199;-74
2022/04/27 08:23:54;;;;;;;30.27;21.05;;;;;;;11.98;100.00;100020.88;4955024;28;20224;-75
2022/04/27 08:26:22;;;;;;;29.85;22.60;;;;;;;12.18;100.00;100021.56;4954477;28;20617;-75
2022/04/27 08:28:49;;;;;;;27.05;20.35;;;;;;;12.47;97.51;100030.66;4955358;28;20185;-75
2022/04/27 08:31:18;;;;;;;29.70;22.40;;;;;;;12.50;96.81;100034.06;4956069;28;20189;-74
2022/04/27 08:33:45;;;;;;;28.25;21.88;;;;;;;12.76;94.94;100037.03;4954793;28;20212;-76
2022/04/27 08:36:12;;;;;;;25.15;21.52;;;;;;;12.86;92.88;100029.22;4954775;28;20878;-75
2022/04/27 08:38:39;;;;;;;27.60;21.00;;;;;;;12.93;92.55;100028.78;4954353;28;20213;-75
2022/04/27 08:41:06;;;;;;;25.15;21.00;;;;;;;13.36;90.54;100036.06;4954841;28;20230;-75
2022/04/27 08:43:34;;;;;;;27.33;20.98;;;;;;;13.70;86.34;100032.13;4952143;28;20204;-75
2022/04/27 08:46:03;;;;;;;26.30;19.40;;;;;;;13.75;83.87;100024.56;4952751;28;20208;-75
2022/04/27 08:48:31;;;;;;;22.23;19.55;;;;;;;14.07;80.08;100020.72;4954414;28;20552;-75
2022/04/27 08:50:58;;;;;;;24.27;20.75;;;;;;;14.18;80.23;100034.44;4954778;28;20296;-75
2022/04/27 08:53:25;;;;;;;24.75;19.00;;;;;;;13.88;82.51;100031.88;4943829;28;20238;-75
2022/04/27 08:55:53;;;;;;;26.92;19.92;;;;;;;13.92;81.91;100026.16;4935455;29;20210;-74
2022/04/27 08:58:22;;;;;;;22.15;18.48;;;;;;;13.69;83.07;100027.66;4943159;29;20251;-76
2022/04/27 09:00:50;;;;;;;23.38;20.13;;;;;;;14.16;80.18;100033.66;4953751;28;20204;-75
2022/04/27 09:03:28;;;;;;;23.77;19.35;;;;;;;13.64;82.70;100037.91;4954994;28;20688;-75
2022/04/27 09:05:58;;;;;;;21.73;18.35;;;;;;;13.47;84.16;100038.97;4952370;28;20629;-75
2022/04/27 09:08:26;;;;;;;20.15;16.67;;;;;;;13.50;83.26;100037.91;4950736;29;20206;-75
2022/04/27 09:11:29;;;;;;;22.73;17.77;;;;;;;13.43;83.89;100041.97;4953745;28;20199;-74
2022/04/27 09:13:57;;;;;;;21.88;18.30;;;;;;;13.45;83.60;100034.63;4949650;28;20200;-75
2022/04/27 09:16:27;;;;;;;21.95;17.38;;;;;;;13.12;84.99;100043.88;4953256;28;20247;-78
2022/04/27 09:21:56;;;;;;;18.10;15.88;;;;;;;13.59;81.57;100031.94;4953407;29;20192;-77
2022/04/27 09:24:22;;;;;;;20.08;16.85;;;;;;;13.77;80.61;100030.75;4952261;28;20212;-75
2022/04/27 09:26:58;;;;;;;19.75;16.23;;;;;;;13.96;79.93;100035.81;4952721;28;20601;-76
2022/04/27 09:29:25;;;;;;;17.58;15.45;;;;;;;13.95;78.59;100034.09;4941586;29;20284;-76
2022/04/27 09:31:57;;;;;;;20.35;17.30;;;;;;;14.36;76.32;100033.19;4953341;28;20703;-76
2022/04/27 09:34:31;;;;;;;18.45;15.00;;;;;;;14.80;73.48;100029.34;4953453;28;20209;-76
2022/04/27 09:37:01;;;;;;;15.77;14.07;;;;;;;14.88;72.49;100036.06;4953846;28;20337;-77
2022/04/27 09:39:28;;;;;;;16.50;14.68;;;;;;;15.02;71.25;100033.28;4953419;28;20214;-76
2022/04/27 09:42:03;;;;;;;18.48;15.07;;;;;;;15.16;70.48;100025.03;4953148;28;20211;-76
2022/04/27 09:44:31;;;;;;;17.48;15.40;;;;;;;15.26;70.13;100021.66;4945974;28;20205;-75
2022/04/27 09:47:00;;;;;;;17.38;15.35;;;;;;;15.58;68.96;100019.34;4952564;28;20650;-76
2022/04/27 09:49:55;;;;;;;15.85;14.27;;;;;;;15.57;67.50;100020.34;4963189;28;20207;-78
2022/04/27 09:52:23;;;;;;;18.15;16.00;;;;;;;15.62;65.84;100020.88;4960804;28;20193;-77
2022/04/27 09:54:51;;;;;;;24.38;14.95;;;;;;;15.62;67.35;100029.91;4953657;28;20204;-76
2022/04/27 09:57:22;;;;;;;16.08;13.50;;;;;;;15.26;67.59;100029.81;4957377;28;20208;-76
2022/04/27 09:59:49;;;;;;;15.77;14.18;;;;;;;14.82;69.10;100031.09;4958123;28;20213;-79
2022/04/27 10:02:25;;;;;;;17.15;14.27;;;;;;;15.37;66.94;100027.19;4957598;28;20566;-75
2022/04/27 10:04:53;;;;;;;17.42;15.10;;;;;;;15.77;65.46;100021.66;4962150;28;20212;-83
2022/04/27 10:07:22;;;;;;;16.50;13.50;;;;;;;15.82;65.61;100020.31;4960771;28;20288;-84
2022/04/27 10:09:49;;;;;;;15.85;13.50;;;;;;;15.15;67.70;100008.84;4961867;28;20200;-83
2022/04/27 10:12:16;;;;;;;16.73;14.68;;;;;;;15.45;67.64;100023.97;4961193;28;20635;-84
2022/04/27 10:14:43;;;;;;;15.98;14.27;;;;;;;15.81;64.90;100017.75;4962363;28;20268;-84
2022/04/27 10:17:11;;;;;;;15.98;14.32;;;;;;;16.15;62.87;100020.69;4959454;29;20722;-84
2022/04/27 10:19:44;;;;;;;18.67;15.45;;;;;;;16.22;62.68;100011.09;4958802;29;20208;-84
2022/04/27 10:22:25;;;;;;;14.57;13.07;;;;;;;15.92;62.73;100014.22;4948384;29;20190;-85
2022/04/27 10:24:52;;;;;;;15.52;13.90;;;;;;;15.79;62.92;100017.84;4942331;29;20188;-84
2022/04/27 10:27:20;;;;;;;15.13;13.57;;;;;;;15.47;64.76;100021.97;4949970;29;20549;-84
2022/04/27 10:29:58;;;;;;;14.60;13.20;;;;;;;15.47;65.20;100013.84;4961832;28;20263;-83
2022/04/27 10:32:41;;;;;;;15.13;12.88;;;;;;;15.34;66.70;100013.88;4960787;28;20287;-84
2022/04/27 10:35:18;;;;;;;16.48;14.00;;;;;;;15.95;64.55;100014.88;4960892;28;20232;-83
2022/04/27 10:37:47;;;;;;;14.95;13.35;;;;;;;16.51;61.21;100010.72;4959209;29;20325;-83
2022/04/27 10:40:30;;;;;;;17.15;14.00;;;;;;;17.27;57.52;100010.19;4938829;28;20221;-84
2022/04/27 10:43:13;;;;;;;14.80;12.18;;;;;;;17.53;56.56;100014.56;4944052;29;20197;-85
2022/04/27 10:45:41;;;;;;;15.50;12.80;;;;;;;17.81;54.35;100013.19;4956247;28;20188;-85
2022/04/27 10:48:14;;;;;;;14.13;12.05;;;;;;;18.05;53.56;100010.34;4955874;28;20200;-85
2022/04/27 10:50:54;;;;;;;13.23;11.80;;;;;;;17.27;54.40;100018.38;4956812;28;20189;-85
2022/04/27 10:53:23;;;;;;;14.90;13.30;;;;;;;16.84;57.23;100016.31;4955225;29;20199;-84
2022/04/27 10:55:54;;;;;;;14.35;12.85;;;;;;;16.94;56.61;100015.63;4956413;28;20203;-84
2022/04/27 10:58:34;;;;;;;13.90;12.50;;;;;;;16.40;57.74;100008.84;4955194;29;20189;-85
2022/04/27 11:01:29;;;;;;;13.40;12.10;;;;;;;16.66;56.80;100007.72;4956335;28;20240;-84
2022/04/27 11:04:00;;;;;;;12.63;11.43;;;;;;;16.96;56.34;100019.06;4956225;28;20197;-85
2022/04/27 11:06:30;;;;;;;12.15;10.95;;;;;;;17.14;55.20;100009.47;4941162;28;20309;-84
2022/04/27 11:09:13;;;;;;;12.07;10.93;;;;;;;17.71;52.52;100000.31;4955730;28;20197;-85
2022/04/27 11:11:57;;;;;;;10.27;9.32;;;;;;;18.07;52.07;99997.47;4955676;28;20202;-84
2022/04/27 11:14:29;;;;;;;14.88;10.93;;;;;;;17.91;52.03;99997.88;4956975;28;20253;-84
2022/04/27 11:16:56;;;;;;;11.82;10.65;;;;;;;17.58;52.02;100004.19;4936668;29;20336;-85
2022/04/27 11:19:34;;;;;;;12.20;11.05;;;;;;;17.26;54.65;100011.22;4944322;29;20215;-86
2022/04/27 11:22:15;;;;;;;11.98;10.77;;;;;;;17.43;53.55;100003.53;4956126;28;20195;-85
2022/04/27 11:24:44;;;;;;;10.40;9.30;;;;;;;17.82;51.49;99995.88;4958011;28;20185;-84
2022/04/27 11:27:14;;;;;;;12.30;10.35;;;;;;;17.95;48.74;99993.00;4964076;28;20633;-82
2022/04/27 11:29:56;;;;;;;12.20;10.10;;;;;;;18.19;48.42;99990.13;4965963;28;20194;-82
2022/04/27 11:32:23;;;;;;;10.90;9.80;;;;;;;18.12;49.02;99985.19;4964683;29;20205;-82
2022/04/27 11:34:50;;;;;;;10.30;9.30;;;;;;;17.63;50.79;99994.63;4966134;28;20564;-81
2022/04/27 11:37:19;;;;;;;11.18;10.18;;;;;;;16.78;54.69;99988.69;4961795;29;20235;-82
2022/04/27 11:39:48;;;;;;;12.40;11.18;;;;;;;16.77;55.42;99995.97;4961653;28;20582;-81
2022/04/27 11:42:16;;;;;;;11.38;10.30;;;;;;;16.67;55.40;99989.53;4963041;28;20209;-83
2022/04/27 11:44:50;;;;;;;14.30;11.60;;;;;;;16.46;56.08;99992.91;4959773;28;20203;-83